logo
Search for airport 
image banner adimage banner adimage banner ad
image banner ad

FAMU - Mkuzi

Located in Pongola, South Africa

ICAO - FAMU, IATA - MZQ

Data provided by Airmate  

General information

Coordinates: S27°37'60" E32°3'0"
Elevation is 400 feet MSL.
 
View others Airports in Kwazulu-Natal

Operational data

Special qualification required
Current time UTC:
Current local time:
Weather at : - ( 0 km )
METAR: PAKX 251715Z AUTO 00000KT 7SM OVC008 02/01 A2964 RMK AO2
View NOTAMs / SUP AIP / TFR affecting this airport [VIEW]
Communications frequencies: [VIEW]

Runways:

RWY identifierQFULength (ft)Width (ft)SurfaceLDA (ft)
17157°605998ASP
35337°605998ASP

Airport contact information

Address: Pongola South Africa

Satellite view of FAMU